createdAt,value
2022-10-18T00:00:43.246Z,44.44
2022-10-18T00:01:43.376Z,44.53
2022-10-18T00:02:43.297Z,44.65
2022-10-18T00:04:44.262Z,44.49
2022-10-18T00:05:43.250Z,45.01
2022-10-18T00:06:43.676Z,45.50
2022-10-18T00:07:43.203Z,46.03
2022-10-18T00:08:43.251Z,44.85
2022-10-18T00:09:43.208Z,44.40
2022-10-18T00:10:43.214Z,44.25
2022-10-18T00:11:43.187Z,44.43
2022-10-18T00:12:43.223Z,44.12
2022-10-18T00:13:43.184Z,44.04
2022-10-18T00:14:43.202Z,44.17
2022-10-18T00:15:43.175Z,44.77
2022-10-18T00:16:43.171Z,45.14
2022-10-18T00:17:43.163Z,46.70
2022-10-18T00:18:43.131Z,46.49
2022-10-18T00:19:43.160Z,45.48
2022-10-18T00:20:43.162Z,45.46
2022-10-18T00:22:43.125Z,45.41
2022-10-18T00:23:43.084Z,44.69
2022-10-18T00:24:43.132Z,45.13
2022-10-18T00:25:43.104Z,45.14
2022-10-18T00:26:43.072Z,46.01
2022-10-18T00:27:43.077Z,46.18
2022-10-18T00:28:43.115Z,45.14
2022-10-18T00:29:43.073Z,45.62
2022-10-18T00:30:43.111Z,46.33
2022-10-18T00:31:43.053Z,45.13
2022-10-18T00:32:43.200Z,44.87
2022-10-18T00:33:43.121Z,45.57
2022-10-18T00:34:43.124Z,47.46
2022-10-18T00:35:43.145Z,44.94
2022-10-18T00:36:43.025Z,44.79
2022-10-18T00:37:43.011Z,44.84
2022-10-18T00:38:43.006Z,44.78
2022-10-18T00:39:43.061Z,44.82
2022-10-18T00:40:43.023Z,46.56
2022-10-18T00:41:43.006Z,45.22
2022-10-18T00:42:42.967Z,45.54
2022-10-18T00:43:42.995Z,44.91
2022-10-18T00:44:42.952Z,45.72
2022-10-18T00:45:42.949Z,45.15
2022-10-18T00:46:42.990Z,44.92
2022-10-18T00:47:42.933Z,44.94
2022-10-18T00:48:42.950Z,45.13
2022-10-18T00:49:42.930Z,46.35
2022-10-18T00:50:42.934Z,45.38
2022-10-18T00:51:42.894Z,45.73
2022-10-18T00:52:42.924Z,46.20
2022-10-18T00:53:42.929Z,46.42
2022-10-18T00:54:42.870Z,49.77
2022-10-18T00:55:42.894Z,49.14
2022-10-18T00:56:42.877Z,48.00
2022-10-18T00:57:42.900Z,47.87
2022-10-18T00:58:42.841Z,48.48
2022-10-18T00:59:42.842Z,48.09
2022-10-18T01:00:42.839Z,48.63
2022-10-18T01:01:42.858Z,47.61
2022-10-18T01:02:42.853Z,47.66
2022-10-18T01:03:42.838Z,48.15
2022-10-18T01:04:42.813Z,48.14
2022-10-18T01:05:42.801Z,48.32
2022-10-18T01:06:42.839Z,49.29
2022-10-18T01:07:42.805Z,49.97
2022-10-18T01:08:42.766Z,49.87
2022-10-18T01:09:42.756Z,49.65
2022-10-18T01:10:42.781Z,49.04
2022-10-18T01:11:42.780Z,48.22
2022-10-18T01:12:42.740Z,47.33
2022-10-18T01:13:42.765Z,46.67
2022-10-18T01:14:42.791Z,46.60
2022-10-18T01:15:42.727Z,47.22
2022-10-18T01:16:42.775Z,47.76
2022-10-18T01:17:42.711Z,47.46
2022-10-18T01:18:42.721Z,48.91
2022-10-18T01:19:42.710Z,46.44
2022-10-18T01:20:42.719Z,45.84
2022-10-18T01:21:42.704Z,45.91
2022-10-18T01:22:42.692Z,46.12
2022-10-18T01:23:42.696Z,46.78
2022-10-18T01:24:42.685Z,45.89
2022-10-18T01:25:42.663Z,46.21
2022-10-18T01:26:42.667Z,45.52
2022-10-18T01:27:42.631Z,46.06
2022-10-18T01:28:42.661Z,48.43
2022-10-18T01:29:42.638Z,46.39
2022-10-18T01:30:42.660Z,46.24
2022-10-18T01:31:42.631Z,48.33
2022-10-18T01:32:42.611Z,46.07
2022-10-18T01:33:42.597Z,45.34
2022-10-18T01:34:42.617Z,49.24
2022-10-18T01:35:42.624Z,52.42
2022-10-18T01:36:42.634Z,48.79
2022-10-18T01:37:42.594Z,45.99
2022-10-18T01:38:42.585Z,45.40
2022-10-18T01:39:42.553Z,44.85
2022-10-18T01:40:42.553Z,44.96
2022-10-18T01:41:42.561Z,45.93
2022-10-18T01:42:42.530Z,46.00
2022-10-18T01:43:42.573Z,47.99
2022-10-18T01:44:42.513Z,45.81
2022-10-18T01:45:42.523Z,44.71
2022-10-18T01:46:42.507Z,46.21
2022-10-18T01:47:42.497Z,45.23
2022-10-18T01:48:42.528Z,45.14
2022-10-18T01:49:42.554Z,45.64
2022-10-18T01:50:42.473Z,46.64
2022-10-18T01:51:42.473Z,48.77
2022-10-18T01:52:42.474Z,46.87
2022-10-18T01:53:42.502Z,46.40
2022-10-18T01:54:42.472Z,46.62
2022-10-18T01:55:42.442Z,46.60
2022-10-18T01:56:42.440Z,47.88
2022-10-18T01:57:42.430Z,45.71
2022-10-18T01:58:42.501Z,48.06
2022-10-18T01:59:42.441Z,54.83
2022-10-18T02:00:42.447Z,54.69
2022-10-18T02:01:42.398Z,56.15
2022-10-18T02:02:42.395Z,55.83
2022-10-18T02:03:42.411Z,55.44
2022-10-18T02:04:42.413Z,55.62
2022-10-18T02:05:42.402Z,55.14
2022-10-18T02:06:42.377Z,54.28
2022-10-18T02:07:42.391Z,52.56
2022-10-18T02:08:42.419Z,51.19
2022-10-18T02:09:42.336Z,51.19
2022-10-18T02:10:42.418Z,49.65
2022-10-18T02:11:42.323Z,50.31
2022-10-18T02:12:42.367Z,50.02
2022-10-18T02:13:42.371Z,46.29
2022-10-18T02:14:42.299Z,47.81
2022-10-18T02:15:42.319Z,46.05
2022-10-18T02:16:42.313Z,49.39
2022-10-18T02:17:42.274Z,53.95
2022-10-18T02:18:43.317Z,58.60
2022-10-18T02:19:42.352Z,58.00
2022-10-18T02:20:42.350Z,58.14
2022-10-18T02:21:42.249Z,59.83
2022-10-18T02:22:42.255Z,49.21
2022-10-18T02:23:42.282Z,47.42
2022-10-18T02:24:42.255Z,45.66
2022-10-18T02:25:42.233Z,45.40
2022-10-18T02:26:42.264Z,46.88
2022-10-18T02:27:42.225Z,47.59
2022-10-18T02:28:42.238Z,45.60
2022-10-18T02:29:42.218Z,45.02
2022-10-18T02:30:42.241Z,45.28
2022-10-18T02:31:42.215Z,51.81
2022-10-18T02:32:42.207Z,46.32
2022-10-18T02:33:42.185Z,44.85
2022-10-18T02:34:42.204Z,45.55
2022-10-18T02:35:42.193Z,46.88
2022-10-18T02:36:42.173Z,47.36
2022-10-18T02:37:42.151Z,44.86
2022-10-18T02:38:42.153Z,44.61
2022-10-18T02:39:42.161Z,44.92
2022-10-18T02:40:42.148Z,47.33
2022-10-18T02:41:42.148Z,47.85
2022-10-18T02:42:42.148Z,45.64
2022-10-18T02:43:42.116Z,44.96
2022-10-18T02:44:42.118Z,47.38
2022-10-18T02:45:42.140Z,46.35
2022-10-18T02:46:42.097Z,44.86
2022-10-18T02:47:42.093Z,47.00
2022-10-18T02:48:42.091Z,44.68
2022-10-18T02:49:42.068Z,44.55
2022-10-18T02:50:42.074Z,44.62
2022-10-18T02:51:42.093Z,44.68
2022-10-18T02:52:42.058Z,44.68
2022-10-18T02:53:42.040Z,44.76
2022-10-18T02:54:42.043Z,45.90
2022-10-18T02:55:42.030Z,44.89
2022-10-18T02:56:42.048Z,47.60
2022-10-18T02:57:42.011Z,46.17
2022-10-18T02:58:42.017Z,46.06
2022-10-18T02:59:42.020Z,45.36
2022-10-18T03:00:41.986Z,45.84
2022-10-18T03:01:42.047Z,44.82
2022-10-18T03:02:42.016Z,46.71
2022-10-18T03:03:41.988Z,46.11
2022-10-18T03:04:41.997Z,48.79
2022-10-18T03:05:42.081Z,47.33
2022-10-18T03:06:41.963Z,49.87
2022-10-18T03:07:41.974Z,45.37
2022-10-18T03:08:41.967Z,47.47
2022-10-18T03:09:41.968Z,49.50
2022-10-18T03:10:41.946Z,50.61
2022-10-18T03:11:41.919Z,46.81
2022-10-18T03:12:41.949Z,47.32
2022-10-18T03:13:41.916Z,49.21
2022-10-18T03:14:41.939Z,47.35
2022-10-18T03:15:41.939Z,47.21
2022-10-18T03:16:41.876Z,51.65
2022-10-18T03:17:41.881Z,52.37
2022-10-18T03:18:41.885Z,52.63
2022-10-18T03:19:41.876Z,53.69
2022-10-18T03:20:41.902Z,53.92
2022-10-18T03:21:41.873Z,53.54
2022-10-18T03:22:41.840Z,53.88
2022-10-18T03:23:41.827Z,54.86
2022-10-18T03:24:41.836Z,54.38
2022-10-18T03:25:45.608Z,52.79
2022-10-18T03:26:41.845Z,53.09
2022-10-18T03:27:41.825Z,54.85
2022-10-18T03:28:41.861Z,56.43
2022-10-18T03:29:41.778Z,57.41
2022-10-18T03:30:41.779Z,58.39
2022-10-18T03:31:41.799Z,58.55
2022-10-18T03:32:41.769Z,58.67
2022-10-18T03:33:41.745Z,59.57
2022-10-18T03:34:41.757Z,60.02
2022-10-18T03:35:41.815Z,60.33
2022-10-18T03:36:41.752Z,59.99
2022-10-18T03:37:41.729Z,60.29
2022-10-18T03:38:41.749Z,60.55
2022-10-18T03:39:41.822Z,61.87
2022-10-18T03:40:41.713Z,62.45
2022-10-18T03:41:41.695Z,61.59
2022-10-18T03:42:41.703Z,61.37
2022-10-18T03:43:41.710Z,60.59
2022-10-18T03:44:41.696Z,60.42
2022-10-18T03:45:41.709Z,61.04
2022-10-18T03:46:41.656Z,60.51
2022-10-18T03:47:41.656Z,61.03
2022-10-18T03:48:41.663Z,60.47
2022-10-18T03:49:41.667Z,60.24
2022-10-18T03:50:41.662Z,61.34
2022-10-18T03:51:41.614Z,60.91
2022-10-18T03:52:41.618Z,59.71
2022-10-18T03:53:41.626Z,58.15
2022-10-18T03:54:41.628Z,56.91
2022-10-18T03:55:41.608Z,56.04
2022-10-18T03:56:41.612Z,53.11
2022-10-18T03:57:41.578Z,54.13
2022-10-18T03:58:41.605Z,54.06
2022-10-18T03:59:41.598Z,50.72
2022-10-18T04:00:41.591Z,49.69
2022-10-18T04:01:41.602Z,50.92
2022-10-18T04:02:41.556Z,52.60
2022-10-18T04:03:41.585Z,49.56
2022-10-18T04:04:41.524Z,52.51
2022-10-18T04:05:41.541Z,52.44
2022-10-18T04:06:41.591Z,53.30
2022-10-18T04:07:41.537Z,53.56
2022-10-18T04:08:41.525Z,52.96
2022-10-18T04:09:41.531Z,55.22
2022-10-18T04:10:41.515Z,53.64
2022-10-18T04:11:41.484Z,56.84
2022-10-18T04:12:41.481Z,57.91
2022-10-18T04:13:41.549Z,61.02
2022-10-18T04:14:41.484Z,62.82
2022-10-18T04:15:41.449Z,62.81
2022-10-18T04:16:41.480Z,63.29
2022-10-18T04:17:41.438Z,63.53
2022-10-18T04:18:41.450Z,63.37
2022-10-18T04:19:41.418Z,63.76
2022-10-18T04:20:41.447Z,63.86
2022-10-18T04:21:41.456Z,64.09
2022-10-18T04:22:41.403Z,64.11
2022-10-18T04:23:41.498Z,63.53
2022-10-18T04:24:41.439Z,63.41
2022-10-18T04:25:41.411Z,63.08
2022-10-18T04:26:41.385Z,61.92
2022-10-18T04:27:41.388Z,61.22
2022-10-18T04:28:41.423Z,60.89
2022-10-18T04:29:41.344Z,60.52
2022-10-18T04:30:41.351Z,60.85
2022-10-18T04:31:41.347Z,60.23
2022-10-18T04:32:41.489Z,60.52
2022-10-18T04:33:41.372Z,60.76
2022-10-18T04:35:41.318Z,61.89
2022-10-18T04:36:41.309Z,61.49
2022-10-18T04:37:41.295Z,62.32
2022-10-18T04:38:41.273Z,62.97
2022-10-18T04:39:41.426Z,62.72
2022-10-18T04:40:41.302Z,61.94
2022-10-18T04:41:41.350Z,60.75
2022-10-18T04:42:41.251Z,60.81
2022-10-18T04:43:41.362Z,60.46
2022-10-18T04:44:41.278Z,60.72
2022-10-18T04:45:41.257Z,60.96
2022-10-18T04:46:41.333Z,61.24
2022-10-18T04:47:41.246Z,61.24
2022-10-18T04:48:41.216Z,61.13
2022-10-18T04:49:41.220Z,61.25
2022-10-18T04:50:41.239Z,61.75
2022-10-18T04:51:41.200Z,61.63
2022-10-18T04:52:41.228Z,61.79
2022-10-18T04:53:41.180Z,62.13
2022-10-18T04:54:41.166Z,61.90
2022-10-18T04:55:41.203Z,60.89
2022-10-18T04:56:41.184Z,61.51
2022-10-18T04:57:41.237Z,61.57
2022-10-18T04:58:41.145Z,62.03
2022-10-18T04:59:41.154Z,62.83
2022-10-18T05:00:41.158Z,62.64
2022-10-18T05:01:41.229Z,63.15
2022-10-18T05:02:41.118Z,63.23
2022-10-18T05:03:41.152Z,63.10
2022-10-18T05:04:41.108Z,62.10
2022-10-18T05:06:00.098Z,60.53
2022-10-18T05:06:43.082Z,60.81
2022-10-18T05:07:41.116Z,60.17
2022-10-18T05:08:41.098Z,60.40
2022-10-18T05:09:41.061Z,61.00
2022-10-18T05:10:41.052Z,60.45
2022-10-18T05:11:41.054Z,59.52
2022-10-18T05:12:41.062Z,60.18
2022-10-18T05:13:41.062Z,60.15
2022-10-18T05:14:41.023Z,61.12
2022-10-18T05:15:41.071Z,61.15
2022-10-18T05:16:41.011Z,60.79
2022-10-18T05:17:41.004Z,59.83
2022-10-18T05:18:41.101Z,59.12
2022-10-18T05:19:41.013Z,59.74
2022-10-18T05:20:41.042Z,60.69
2022-10-18T05:21:41.035Z,60.97
2022-10-18T05:22:40.943Z,62.19
2022-10-18T05:23:40.973Z,62.57
2022-10-18T05:24:40.943Z,62.08
2022-10-18T05:25:40.994Z,61.39
2022-10-18T05:26:40.928Z,60.69
2022-10-18T05:27:40.940Z,60.38
2022-10-18T05:28:41.550Z,59.85
2022-10-18T05:29:40.977Z,59.74
2022-10-18T05:30:41.078Z,60.79
2022-10-18T05:31:40.933Z,59.88
2022-10-18T05:32:40.872Z,60.58
2022-10-18T05:33:41.076Z,60.53
2022-10-18T05:34:40.893Z,61.53
2022-10-18T05:35:40.881Z,61.12
2022-10-18T05:36:40.855Z,61.47
2022-10-18T05:37:40.853Z,62.11
2022-10-18T05:38:40.847Z,63.07
2022-10-18T05:39:40.856Z,62.66
2022-10-18T05:40:40.923Z,61.88
2022-10-18T05:41:40.871Z,61.83
2022-10-18T05:42:40.822Z,61.64
2022-10-18T05:43:40.802Z,61.51
2022-10-18T05:44:40.806Z,61.36
2022-10-18T05:45:40.816Z,61.49
2022-10-18T05:46:40.824Z,61.19
2022-10-18T05:47:40.796Z,60.54
2022-10-18T05:48:40.765Z,60.84
2022-10-18T05:49:40.812Z,59.03
2022-10-18T05:50:40.747Z,58.62
2022-10-18T05:51:40.879Z,57.14
2022-10-18T05:52:40.756Z,57.25
2022-10-18T05:53:40.726Z,56.80
2022-10-18T05:54:40.865Z,57.35
2022-10-18T05:55:40.719Z,56.61
2022-10-18T05:56:40.769Z,56.52
2022-10-18T05:57:40.741Z,55.36
2022-10-18T05:58:40.723Z,54.11
2022-10-18T05:59:40.714Z,54.19
2022-10-18T06:00:40.713Z,55.68
2022-10-18T06:01:40.710Z,53.17
2022-10-18T06:02:40.764Z,56.76
2022-10-18T06:03:40.655Z,55.65
2022-10-18T06:04:40.662Z,54.12
2022-10-18T06:05:40.678Z,52.64
2022-10-18T06:06:40.626Z,54.56
2022-10-18T06:07:41.661Z,55.48
2022-10-18T06:08:40.630Z,55.38
2022-10-18T06:09:40.615Z,53.31
2022-10-18T06:10:40.604Z,54.20
2022-10-18T06:11:40.641Z,54.37
2022-10-18T06:12:40.634Z,54.95
2022-10-18T06:13:40.642Z,54.01
2022-10-18T06:14:40.611Z,53.31
2022-10-18T06:15:40.572Z,51.67
2022-10-18T06:16:40.612Z,53.16
2022-10-18T06:17:40.587Z,52.64
2022-10-18T06:18:40.577Z,51.92
2022-10-18T06:19:40.572Z,50.88
2022-10-18T06:20:40.580Z,51.78
2022-10-18T06:21:40.530Z,51.43
2022-10-18T06:22:40.534Z,51.02
2022-10-18T06:23:40.527Z,54.29
2022-10-18T06:24:40.580Z,52.37
2022-10-18T06:25:40.539Z,54.27
2022-10-18T06:26:40.523Z,51.85
2022-10-18T06:27:40.531Z,51.84
2022-10-18T06:28:40.541Z,51.75
2022-10-18T06:29:40.501Z,49.17
2022-10-18T06:30:40.457Z,51.16
2022-10-18T06:31:40.486Z,54.33
2022-10-18T06:32:40.503Z,51.73
2022-10-18T06:33:40.447Z,52.12
2022-10-18T06:34:40.425Z,52.04
2022-10-18T06:35:40.443Z,52.01
2022-10-18T06:36:40.447Z,51.34
2022-10-18T06:37:40.430Z,49.41
2022-10-18T06:38:40.387Z,50.45
2022-10-18T06:39:40.427Z,52.07
2022-10-18T06:40:40.391Z,53.59
2022-10-18T06:41:40.493Z,54.13
2022-10-18T06:42:40.373Z,55.46
2022-10-18T06:43:40.380Z,54.40
2022-10-18T06:44:40.392Z,56.46
2022-10-18T06:45:40.344Z,50.69
2022-10-18T06:46:40.367Z,52.18
2022-10-18T06:47:40.316Z,52.59
2022-10-18T06:48:40.312Z,51.39
2022-10-18T06:49:40.319Z,53.42
2022-10-18T06:50:40.310Z,51.34
2022-10-18T06:51:40.296Z,50.42
2022-10-18T06:52:40.346Z,51.09
2022-10-18T06:53:44.416Z,53.18
2022-10-18T06:54:45.064Z,54.24
2022-10-18T06:55:40.265Z,52.31
2022-10-18T06:56:40.293Z,50.30
2022-10-18T06:57:40.258Z,54.53
2022-10-18T06:58:40.266Z,57.78
2022-10-18T06:59:40.248Z,54.42
2022-10-18T07:00:40.230Z,53.68
2022-10-18T07:01:40.344Z,52.41
2022-10-18T07:02:40.235Z,54.35
2022-10-18T07:03:40.230Z,53.35
2022-10-18T07:04:40.226Z,54.23
2022-10-18T07:05:40.219Z,55.65
2022-10-18T07:06:40.229Z,53.37
2022-10-18T07:07:40.177Z,52.75
2022-10-18T07:08:40.289Z,52.16
2022-10-18T07:09:40.167Z,54.27
2022-10-18T07:10:40.170Z,49.67
2022-10-18T07:11:40.149Z,52.94
2022-10-18T07:12:40.174Z,52.88
2022-10-18T07:13:40.222Z,52.58
2022-10-18T07:14:40.146Z,52.38
2022-10-18T07:15:40.127Z,50.16
2022-10-18T07:16:40.166Z,52.09
2022-10-18T07:17:40.114Z,53.98
2022-10-18T07:18:40.173Z,51.00
2022-10-18T07:19:40.182Z,50.43
2022-10-18T07:20:40.137Z,52.74
2022-10-18T07:21:40.183Z,54.89
2022-10-18T07:22:40.147Z,52.34
2022-10-18T07:23:40.143Z,52.39
2022-10-18T07:24:40.085Z,49.98
2022-10-18T07:25:40.080Z,53.43
2022-10-18T07:26:40.057Z,52.01
2022-10-18T07:27:40.053Z,53.35
2022-10-18T07:28:40.093Z,51.12
2022-10-18T07:29:40.035Z,55.21
2022-10-18T07:30:40.064Z,53.94
2022-10-18T07:31:39.997Z,54.36
2022-10-18T07:32:40.091Z,54.11
2022-10-18T07:33:40.016Z,52.98
2022-10-18T07:34:40.045Z,55.00
2022-10-18T07:35:39.976Z,54.62
2022-10-18T07:36:39.966Z,54.33
2022-10-18T07:37:39.952Z,54.63
2022-10-18T07:38:39.961Z,54.19
2022-10-18T07:39:39.976Z,55.04
2022-10-18T07:40:40.126Z,54.97
2022-10-18T07:41:39.971Z,53.83
2022-10-18T07:42:39.936Z,55.67
2022-10-18T07:43:39.939Z,52.69
2022-10-18T07:44:39.928Z,57.01
2022-10-18T07:45:40.024Z,52.93
2022-10-18T07:46:39.931Z,53.27
2022-10-18T07:47:40.261Z,51.87
2022-10-18T07:48:39.889Z,51.56
2022-10-18T07:49:39.871Z,53.13
2022-10-18T07:50:39.902Z,54.50
2022-10-18T07:51:39.901Z,56.79
2022-10-18T07:52:39.877Z,56.47
2022-10-18T07:53:39.911Z,56.81
2022-10-18T07:54:40.040Z,56.75
2022-10-18T07:55:39.824Z,57.50
2022-10-18T07:56:39.856Z,58.30
2022-10-18T07:57:39.858Z,58.67
2022-10-18T07:58:39.814Z,56.96
2022-10-18T07:59:39.820Z,56.21
2022-10-18T08:00:39.796Z,56.02
2022-10-18T08:01:39.868Z,52.89
2022-10-18T08:02:39.850Z,50.82
2022-10-18T08:03:39.816Z,51.65
2022-10-18T08:04:39.800Z,54.29
2022-10-18T08:05:39.784Z,49.96
2022-10-18T08:06:39.757Z,53.08
2022-10-18T08:07:39.760Z,52.79
2022-10-18T08:08:39.787Z,52.58
2022-10-18T08:09:40.750Z,50.22
2022-10-18T08:10:39.732Z,49.59
2022-10-18T08:11:39.725Z,52.97
2022-10-18T08:12:39.732Z,52.69
2022-10-18T08:13:39.696Z,50.96
2022-10-18T08:14:39.740Z,54.84
2022-10-18T08:15:39.706Z,52.89
2022-10-18T08:16:39.688Z,50.21
2022-10-18T08:17:39.689Z,49.24
2022-10-18T08:18:39.704Z,49.88
2022-10-18T08:19:48.251Z,51.01
2022-10-18T08:20:41.712Z,48.61
2022-10-18T08:21:39.691Z,50.51
2022-10-18T08:22:39.629Z,51.81
2022-10-18T08:23:39.625Z,51.20
2022-10-18T08:24:39.670Z,52.09
2022-10-18T08:25:39.624Z,51.78
2022-10-18T08:26:39.603Z,51.56
2022-10-18T08:27:39.596Z,51.98
2022-10-18T08:28:39.706Z,53.54
2022-10-18T08:29:39.631Z,51.87
2022-10-18T08:30:39.622Z,54.75
2022-10-18T08:31:39.614Z,54.29
2022-10-18T08:32:39.578Z,54.72
2022-10-18T08:33:39.587Z,55.81
2022-10-18T08:34:39.578Z,55.35
2022-10-18T08:35:39.566Z,50.53
2022-10-18T08:36:39.560Z,53.57
2022-10-18T08:37:39.542Z,50.60
2022-10-18T08:38:39.537Z,53.85
2022-10-18T08:39:39.532Z,54.24
2022-10-18T08:40:39.510Z,54.53
2022-10-18T08:41:39.604Z,57.24
2022-10-18T08:42:39.502Z,54.63
2022-10-18T08:43:39.503Z,54.46
2022-10-18T08:44:39.489Z,54.23
2022-10-18T08:45:43.369Z,52.96
2022-10-18T08:46:40.507Z,54.26
2022-10-18T08:47:39.455Z,51.87
2022-10-18T08:48:39.445Z,55.19
2022-10-18T08:49:44.163Z,54.95
2022-10-18T08:50:40.436Z,55.44
2022-10-18T08:51:39.474Z,53.54
2022-10-18T08:53:40.114Z,53.34
2022-10-18T08:54:39.467Z,51.55
2022-10-18T08:55:39.440Z,52.41
2022-10-18T08:56:39.394Z,54.49
2022-10-18T08:57:39.390Z,51.54
2022-10-18T08:58:39.372Z,53.06
2022-10-18T08:59:39.389Z,54.61
2022-10-18T09:00:39.369Z,56.65
2022-10-18T09:01:39.438Z,57.25
2022-10-18T09:02:39.383Z,60.53
2022-10-18T09:03:39.415Z,60.80
2022-10-18T09:04:39.340Z,57.14
2022-10-18T09:05:39.373Z,51.46
2022-10-18T09:06:39.368Z,56.92
2022-10-18T09:07:39.360Z,49.15
2022-10-18T09:08:39.305Z,51.30
2022-10-18T09:09:39.309Z,51.62
2022-10-18T09:10:39.292Z,53.14
2022-10-18T09:11:39.379Z,53.48
2022-10-18T09:12:39.299Z,51.97
2022-10-18T09:13:39.368Z,49.40
2022-10-18T09:14:39.261Z,53.54
2022-10-18T09:15:39.282Z,55.46
2022-10-18T09:16:39.248Z,56.74
2022-10-18T09:17:39.271Z,53.51
2022-10-18T09:18:39.223Z,49.01
2022-10-18T09:19:39.224Z,53.61
2022-10-18T09:20:39.224Z,51.22
2022-10-18T09:21:39.220Z,51.41
2022-10-18T09:22:39.245Z,49.03
2022-10-18T09:23:39.191Z,52.78
2022-10-18T09:24:39.225Z,49.53
2022-10-18T09:25:39.189Z,52.36
2022-10-18T09:26:39.219Z,53.78
2022-10-18T09:27:39.280Z,51.24
2022-10-18T09:28:39.295Z,50.33
2022-10-18T09:29:39.155Z,50.38
2022-10-18T09:30:39.141Z,52.62
2022-10-18T09:31:39.159Z,47.55
2022-10-18T09:32:39.203Z,47.10
2022-10-18T09:33:39.155Z,49.99
2022-10-18T09:34:39.329Z,51.26
2022-10-18T09:35:39.115Z,50.51
2022-10-18T09:36:39.119Z,48.62
2022-10-18T09:37:39.114Z,50.85
2022-10-18T09:38:39.175Z,50.01
2022-10-18T09:39:39.103Z,48.58
2022-10-18T09:40:39.101Z,49.97
2022-10-18T09:41:39.093Z,50.49
2022-10-18T09:42:39.088Z,47.52
2022-10-18T09:43:39.077Z,48.72
2022-10-18T09:44:39.195Z,49.27
2022-10-18T09:45:39.069Z,49.15
2022-10-18T09:46:39.060Z,48.85
2022-10-18T09:47:39.036Z,49.88
2022-10-18T09:48:39.142Z,49.26
2022-10-18T09:49:39.048Z,52.66
2022-10-18T09:50:39.038Z,52.58
2022-10-18T09:51:39.082Z,50.34
2022-10-18T09:52:39.001Z,49.78
2022-10-18T09:53:39.059Z,50.33
2022-10-18T09:54:39.013Z,50.20
2022-10-18T09:55:38.982Z,51.35
2022-10-18T09:56:41.737Z,48.38
2022-10-18T09:57:38.988Z,46.61
2022-10-18T09:58:38.976Z,48.41
2022-10-18T09:59:38.994Z,47.05
2022-10-18T10:00:38.967Z,52.63
2022-10-18T10:01:38.979Z,47.62
2022-10-18T10:02:38.947Z,44.47
2022-10-18T10:03:38.993Z,47.24
2022-10-18T10:04:38.947Z,47.09
2022-10-18T10:05:38.928Z,48.61
2022-10-18T10:06:39.008Z,48.81
2022-10-18T10:07:39.247Z,50.12
2022-10-18T10:08:38.914Z,48.80
2022-10-18T10:09:38.941Z,49.20
2022-10-18T10:10:38.875Z,50.02
2022-10-18T10:11:38.879Z,49.62
2022-10-18T10:12:38.888Z,54.73
2022-10-18T10:13:38.862Z,53.31
2022-10-18T10:14:38.875Z,48.09
2022-10-18T10:15:42.393Z,53.02
2022-10-18T10:16:38.892Z,53.06
2022-10-18T10:17:38.848Z,51.54
2022-10-18T10:18:38.822Z,50.32
2022-10-18T10:19:38.820Z,50.47
2022-10-18T10:20:38.819Z,48.96
2022-10-18T10:21:39.805Z,51.26
2022-10-18T10:22:38.875Z,50.38
2022-10-18T10:23:38.807Z,53.41
2022-10-18T10:24:38.812Z,49.94
2022-10-18T10:25:38.771Z,49.95
2022-10-18T10:26:38.794Z,48.32
2022-10-18T10:27:38.786Z,55.27
2022-10-18T10:28:38.870Z,51.32
2022-10-18T10:29:44.446Z,50.33
2022-10-18T10:30:40.750Z,47.44
2022-10-18T10:31:38.762Z,48.07
2022-10-18T10:32:38.752Z,50.25
2022-10-18T10:33:38.763Z,48.54
2022-10-18T10:34:41.060Z,48.39
2022-10-18T10:35:55.934Z,49.76
2022-10-18T10:36:40.702Z,47.47
2022-10-18T10:37:38.711Z,51.04
2022-10-18T10:38:38.739Z,51.20
2022-10-18T10:39:38.734Z,49.31
2022-10-18T10:40:38.683Z,48.45
2022-10-18T10:41:38.684Z,50.59
2022-10-18T10:42:38.675Z,52.25
2022-10-18T10:43:39.989Z,49.69
2022-10-18T10:44:39.659Z,47.97
2022-10-18T10:45:38.651Z,51.10
2022-10-18T10:46:38.665Z,48.96
2022-10-18T10:47:38.635Z,50.41
2022-10-18T10:48:38.667Z,47.59
2022-10-18T10:49:40.808Z,50.32
2022-10-18T10:50:39.706Z,48.64
2022-10-18T10:51:38.617Z,48.00
2022-10-18T10:52:38.955Z,49.53
2022-10-18T10:53:38.583Z,48.36
2022-10-18T10:54:38.574Z,46.98
2022-10-18T10:55:38.583Z,50.21
2022-10-18T10:56:38.602Z,51.39
2022-10-18T10:57:38.596Z,48.69
2022-10-18T10:58:38.549Z,46.07
2022-10-18T10:59:38.697Z,47.48
2022-10-18T11:00:38.573Z,47.66
2022-10-18T11:01:38.569Z,50.86
2022-10-18T11:02:38.620Z,50.76
2022-10-18T11:03:38.610Z,50.29
2022-10-18T11:04:38.565Z,51.78
2022-10-18T11:05:38.498Z,50.67
2022-10-18T11:06:38.525Z,46.72
2022-10-18T11:07:38.503Z,49.78
2022-10-18T11:08:38.536Z,45.31
2022-10-18T11:09:38.500Z,51.25
2022-10-18T11:10:38.599Z,51.83
2022-10-18T11:11:38.511Z,48.78
2022-10-18T11:12:38.490Z,52.39
2022-10-18T11:13:38.499Z,48.53
2022-10-18T11:14:38.476Z,50.02
2022-10-18T11:15:38.487Z,52.01
2022-10-18T11:16:38.447Z,51.23
2022-10-18T11:17:38.531Z,52.11
2022-10-18T11:18:38.432Z,50.80
2022-10-18T11:19:38.462Z,49.42
2022-10-18T11:20:38.427Z,47.38
2022-10-18T11:21:38.485Z,51.10
2022-10-18T11:22:38.434Z,51.93
2022-10-18T11:23:38.430Z,51.94
2022-10-18T11:24:38.416Z,48.84
2022-10-18T11:25:38.397Z,50.77
2022-10-18T11:26:41.997Z,50.15
2022-10-18T11:27:38.408Z,51.19
2022-10-18T11:28:38.468Z,55.11
2022-10-18T11:29:38.386Z,51.17
2022-10-18T11:30:38.444Z,50.03
2022-10-18T11:31:38.466Z,50.70
2022-10-18T11:32:38.360Z,50.61
2022-10-18T11:34:03.424Z,49.20
2022-10-18T11:34:40.347Z,50.42
2022-10-18T11:35:38.369Z,54.43
2022-10-18T11:36:45.371Z,50.65
2022-10-18T11:37:40.476Z,52.70
2022-10-18T11:38:38.322Z,53.36
2022-10-18T11:39:38.301Z,51.48
2022-10-18T11:40:38.309Z,51.13
2022-10-18T11:41:38.459Z,52.72
2022-10-18T11:42:40.110Z,49.66
2022-10-18T11:44:00.991Z,52.41
2022-10-18T11:44:40.282Z,54.51
2022-10-18T11:45:38.281Z,51.68
2022-10-18T11:46:38.270Z,45.81
2022-10-18T11:47:38.309Z,49.16
2022-10-18T11:48:38.296Z,49.41
2022-10-18T11:49:38.248Z,46.31
2022-10-18T11:50:38.281Z,51.49
2022-10-18T11:51:55.998Z,48.74
2022-10-18T11:52:40.284Z,50.29
2022-10-18T11:53:38.230Z,50.13
2022-10-18T11:54:38.238Z,50.27
2022-10-18T11:55:38.202Z,51.48
2022-10-18T11:56:38.208Z,53.58
2022-10-18T11:57:38.213Z,53.19
2022-10-18T11:58:38.211Z,52.70
2022-10-18T11:59:38.182Z,50.60
2022-10-18T12:00:38.215Z,51.96
2022-10-18T12:01:38.193Z,50.99
2022-10-18T12:02:38.217Z,51.29
2022-10-18T12:03:38.209Z,49.52
2022-10-18T12:04:48.953Z,50.00
2022-10-18T12:05:40.145Z,50.43
2022-10-18T12:06:38.134Z,52.89
2022-10-18T12:07:38.167Z,48.68
2022-10-18T12:08:38.151Z,52.09
2022-10-18T12:09:38.171Z,50.99
2022-10-18T12:10:52.603Z,51.78
2022-10-18T12:11:41.064Z,53.07
2022-10-18T12:12:38.140Z,54.56
2022-10-18T12:13:38.136Z,52.38
2022-10-18T12:14:38.154Z,52.29
2022-10-18T12:15:38.097Z,51.64
2022-10-18T12:17:07.808Z,50.86
2022-10-18T12:17:44.010Z,51.41
2022-10-18T12:18:40.100Z,53.61
2022-10-18T12:19:38.091Z,50.99
2022-10-18T12:20:38.091Z,50.24
2022-10-18T12:21:38.133Z,49.63
2022-10-18T12:22:38.093Z,53.49
2022-10-18T12:23:38.045Z,62.02
2022-10-18T12:24:38.070Z,58.90
2022-10-18T12:25:38.052Z,58.72
2022-10-18T12:26:38.048Z,59.86
2022-10-18T12:27:38.023Z,60.21
2022-10-18T12:28:38.048Z,59.86
2022-10-18T12:29:38.070Z,59.31
2022-10-18T12:30:38.028Z,50.69
2022-10-18T12:31:38.026Z,52.78
2022-10-18T12:32:37.975Z,52.92
2022-10-18T12:33:37.977Z,51.13
2022-10-18T12:34:37.965Z,49.98
2022-10-18T12:35:37.985Z,51.29
2022-10-18T12:36:37.988Z,50.67
2022-10-18T12:37:38.034Z,52.65
2022-10-18T12:38:38.043Z,50.84
2022-10-18T12:39:43.964Z,50.37
2022-10-18T12:40:38.937Z,49.54
2022-10-18T12:41:37.921Z,49.75
2022-10-18T12:42:37.957Z,46.02
2022-10-18T12:43:37.931Z,48.99
2022-10-18T12:44:37.936Z,49.01
2022-10-18T12:45:37.901Z,48.14
2022-10-18T12:46:37.952Z,47.10
2022-10-18T12:47:37.917Z,51.54
2022-10-18T12:48:37.982Z,51.87
2022-10-18T12:49:40.210Z,47.87
2022-10-18T12:50:37.873Z,50.50
2022-10-18T12:51:37.881Z,51.33
2022-10-18T12:52:37.901Z,51.43
2022-10-18T12:53:37.893Z,50.59
2022-10-18T12:54:37.942Z,49.58
2022-10-18T12:55:37.926Z,51.94
2022-10-18T12:56:37.854Z,51.53